Capitol Logistics 2185

Operating for AJT



KPHL
Philadelphia International Airport
Philadelphia, Pennsylvania
KSMF
Sacramento International Airport
Sacramento, California

Activity Log

Date Flight Route Aircraft Duration
No Flights Yet

Route Details

Aircraft Information
Primary: Boeing 767-300BDSF
Backup: Boeing 757-200SF
Route Data
Distance: 2133nm
Duration: 5h 12m
Recm'd Route: MXE PENSY J110 FLIRT BRNAN Q42 IRK J151 OVR J151 ONL J94 BFF J94 LLC
Origin Wx: KPHL 180154Z 02009KT 10SM OVC070 12/03 A2985 RMK AO2 SLP107 T01170028
Dest. Wx: KSMF 180153Z 34010G18KT 10SM CLR 28/M04 A2995 RMK AO2 SLP143 T02781039
Notes: